Time;durP1;ratioP1;P1;durP2;ratioP2;P2;SDS_P1;SDS_P2;PMS_P1;PMS_P2;Temp;Humidity;BMP_temperature;BMP_pressure;BME280_temperature;BME280_humidity;BME280_pressure;Samples;Min_cycle;Max_cycle;Signal;HPM_P1;HPM_P2
2021/11/30 00:01:06;;;;;;;7.45;1.20;;;6.70;99.90;;;;;;5077865;28;20024;-70
2021/11/30 00:03:33;;;;;;;8.00;1.45;;;6.60;99.90;;;;;;5079807;28;20040;-68
2021/11/30 00:05:58;;;;;;;5.55;1.40;;;6.60;99.90;;;;;;5092895;28;20034;-68
2021/11/30 00:08:28;;;;;;;2.58;1.42;;;6.50;99.90;;;;;;5079223;28;20044;-68
2021/11/30 00:10:57;;;;;;;8.40;2.08;;;6.50;99.90;;;;;;5096240;28;20393;-71
2021/11/30 00:13:23;;;;;;;4.35;1.65;;;6.50;99.90;;;;;;5101942;28;20719;-70
2021/11/30 00:15:52;;;;;;;3.25;1.50;;;6.50;99.90;;;;;;5084458;28;20020;-71
2021/11/30 00:18:17;;;;;;;7.63;2.00;;;6.50;99.90;;;;;;5085119;28;20050;-69
2021/11/30 00:20:44;;;;;;;2.75;1.38;;;6.50;99.90;;;;;;5097986;28;20029;-67
2021/11/30 00:23:11;;;;;;;4.88;1.70;;;6.50;99.90;;;;;;5093035;28;20085;-77
2021/11/30 00:25:38;;;;;;;3.83;1.73;;;6.60;99.90;;;;;;5074050;28;20028;-72
2021/11/30 00:28:04;;;;;;;6.25;2.03;;;6.60;99.90;;;;;;5094424;28;20094;-66
2021/11/30 00:30:31;;;;;;;6.38;1.83;;;6.60;99.90;;;;;;5102287;28;20016;-67
2021/11/30 00:32:57;;;;;;;7.65;2.88;;;6.60;99.90;;;;;;5094899;28;20045;-68
2021/11/30 00:35:23;;;;;;;8.18;2.30;;;6.60;99.90;;;;;;5082906;28;20616;-68
2021/11/30 00:37:49;;;;;;;7.13;1.80;;;6.60;99.90;;;;;;5101566;28;20059;-67
2021/11/30 00:40:15;;;;;;;8.52;2.15;;;6.70;99.90;;;;;;5102637;28;20480;-70
2021/11/30 00:42:41;;;;;;;3.53;1.60;;;6.70;99.90;;;;;;5099305;28;20158;-67
2021/11/30 00:45:09;;;;;;;4.18;2.03;;;6.80;99.90;;;;;;5086598;28;20478;-68
2021/11/30 00:47:37;;;;;;;6.47;1.63;;;6.80;99.90;;;;;;5097721;27;20032;-69
2021/11/30 00:50:07;;;;;;;7.07;1.60;;;6.80;99.90;;;;;;5100174;28;20028;-70
2021/11/30 00:52:33;;;;;;;6.55;1.65;;;6.80;99.90;;;;;;5098028;28;20028;-69
2021/11/30 00:54:59;;;;;;;5.05;1.65;;;6.80;99.90;;;;;;5090050;28;20039;-71
2021/11/30 00:57:25;;;;;;;6.78;2.05;;;6.90;99.90;;;;;;5095507;28;20020;-70
2021/11/30 00:59:52;;;;;;;9.13;1.63;;;6.90;99.90;;;;;;5075416;28;20486;-68
2021/11/30 01:02:18;;;;;;;3.42;1.80;;;7.00;99.90;;;;;;5108320;28;20113;-67
2021/11/30 01:04:44;;;;;;;9.48;1.75;;;7.10;99.90;;;;;;5100177;28;20107;-71
2021/11/30 01:07:11;;;;;;;6.57;2.38;;;7.10;99.90;;;;;;5104482;28;20036;-68
2021/11/30 01:09:41;;;;;;;6.95;1.83;;;7.10;99.90;;;;;;5093750;28;20047;-77
2021/11/30 01:12:07;;;;;;;2.10;1.60;;;7.20;99.90;;;;;;5093412;28;20020;-68
2021/11/30 01:14:33;;;;;;;5.45;1.95;;;7.20;99.90;;;;;;5093440;28;20407;-68
2021/11/30 01:16:59;;;;;;;4.28;2.00;;;7.30;99.90;;;;;;5101321;28;20013;-68
2021/11/30 01:19:25;;;;;;;5.05;2.22;;;7.30;99.90;;;;;;5086753;28;20020;-69
2021/11/30 01:21:52;;;;;;;9.57;3.40;;;7.30;99.90;;;;;;5103483;28;20062;-69
2021/11/30 01:24:18;;;;;;;7.70;2.70;;;7.40;99.90;;;;;;5093276;28;20070;-69
2021/11/30 01:26:43;;;;;;;8.52;2.22;;;7.40;99.90;;;;;;5092584;28;20360;-67
2021/11/30 01:29:10;;;;;;;6.68;2.58;;;7.40;99.90;;;;;;5079976;28;20055;-68
2021/11/30 01:31:35;;;;;;;11.25;3.80;;;7.50;99.90;;;;;;5092285;28;20120;-68
2021/11/30 01:34:01;;;;;;;6.03;2.35;;;7.50;99.90;;;;;;5102960;28;20111;-68
2021/11/30 01:36:26;;;;;;;5.57;1.83;;;7.50;99.90;;;;;;5090657;28;20040;-70
2021/11/30 01:38:52;;;;;;;4.70;2.15;;;7.60;99.90;;;;;;5110266;27;20493;-69
2021/11/30 01:41:18;;;;;;;5.90;2.92;;;7.60;99.90;;;;;;5095834;27;20069;-70
2021/11/30 01:43:44;;;;;;;4.53;1.70;;;7.60;99.90;;;;;;5071117;27;20035;-69
2021/11/30 01:46:25;;;;;;;6.53;1.75;;;7.60;99.90;;;;;;5093297;27;20023;-70
2021/11/30 01:51:53;;;;;;;4.88;1.17;;;7.70;99.90;;;;;;5021343;28;20026;-69
2021/11/30 01:54:18;;;;;;;5.18;1.75;;;7.80;99.90;;;;;;5089337;27;20048;-70
2021/11/30 01:56:44;;;;;;;3.50;1.55;;;7.80;99.90;;;;;;5084629;27;20027;-69
2021/11/30 01:59:10;;;;;;;2.45;1.50;;;7.90;99.90;;;;;;5095714;27;20067;-70
2021/11/30 02:01:36;;;;;;;7.07;1.65;;;7.90;99.90;;;;;;5097502;28;20073;-69
2021/11/30 02:04:01;;;;;;;3.00;1.50;;;7.90;99.90;;;;;;5078262;27;20481;-69
2021/11/30 02:06:27;;;;;;;8.00;1.90;;;7.90;99.90;;;;;;5098018;27;20035;-67
2021/11/30 02:08:53;;;;;;;5.88;3.08;;;8.00;99.90;;;;;;5095946;27;20118;-67
2021/11/30 02:11:18;;;;;;;6.43;2.88;;;8.00;99.90;;;;;;5089135;27;20064;-68
2021/11/30 02:13:44;;;;;;;4.97;2.38;;;8.00;99.90;;;;;;5101466;28;20405;-69
2021/11/30 02:16:10;;;;;;;8.32;3.58;;;8.10;99.90;;;;;;5094100;27;20434;-66
2021/11/30 02:18:44;;;;;;;9.82;3.42;;;8.10;99.90;;;;;;5105554;27;20027;-69
2021/11/30 02:21:10;;;;;;;6.90;3.50;;;8.10;99.90;;;;;;5094112;28;20023;-68
2021/11/30 02:24:09;;;;;;;8.82;4.22;;;8.10;99.90;;;;;;5094325;27;20038;-68
2021/11/30 02:26:31;;;;;;;7.35;3.10;;;8.20;99.90;;;;;;5092689;27;20040;-69
2021/11/30 02:28:57;;;;;;;11.82;3.40;;;8.20;99.90;;;;;;5085791;27;20084;-69
2021/11/30 02:31:26;;;;;;;6.93;3.35;;;8.20;99.90;;;;;;5080647;27;20073;-69
2021/11/30 02:33:54;;;;;;;5.90;2.58;;;8.20;99.90;;;;;;5088533;27;20511;-70
2021/11/30 02:36:30;;;;;;;6.93;2.60;;;8.30;99.90;;;;;;5092565;27;20042;-70
2021/11/30 02:38:58;;;;;;;10.40;2.80;;;8.30;99.90;;;;;;5095452;27;20043;-73
2021/11/30 02:41:24;;;;;;;9.48;3.20;;;8.30;99.90;;;;;;5084066;28;20411;-71
2021/11/30 02:43:50;;;;;;;7.93;4.30;;;8.30;99.90;;;;;;5092001;27;20035;-73
2021/11/30 02:46:34;;;;;;;11.75;5.07;;;8.40;99.90;;;;;;5078787;27;20032;-71
2021/11/30 02:49:01;;;;;;;10.93;3.30;;;8.40;99.90;;;;;;5104804;27;20110;-72
2021/11/30 02:51:27;;;;;;;14.63;4.55;;;8.40;99.90;;;;;;5101920;27;20027;-74
2021/11/30 02:53:54;;;;;;;11.18;4.55;;;8.40;99.90;;;;;;5104594;27;20030;-72
2021/11/30 02:56:20;;;;;;;18.73;4.43;;;8.40;99.90;;;;;;5094746;27;20023;-70
2021/11/30 02:58:45;;;;;;;13.10;3.97;;;8.50;99.90;;;;;;5114983;27;20054;-71
2021/11/30 03:01:12;;;;;;;16.65;4.38;;;8.50;99.90;;;;;;5094085;27;20081;-72
2021/11/30 03:03:38;;;;;;;16.73;4.43;;;8.50;99.90;;;;;;5091875;27;20039;-73
2021/11/30 03:06:04;;;;;;;12.68;3.60;;;8.50;99.90;;;;;;5125154;27;20035;-72
2021/11/30 03:08:30;;;;;;;18.90;5.95;;;8.50;99.90;;;;;;5080344;28;20023;-71
2021/11/30 03:10:56;;;;;;;13.35;4.40;;;8.50;99.90;;;;;;5109233;28;20103;-71
2021/11/30 03:13:21;;;;;;;10.88;3.97;;;8.60;99.90;;;;;;5120540;27;20486;-67
2021/11/30 03:15:53;;;;;;;10.05;4.18;;;8.60;99.90;;;;;;5064617;27;20024;-68
2021/11/30 03:18:22;;;;;;;12.15;4.13;;;8.60;99.90;;;;;;5083155;27;20104;-69
2021/11/30 03:20:48;;;;;;;13.40;4.18;;;8.60;99.90;;;;;;5106775;28;20489;-66
2021/11/30 03:23:14;;;;;;;11.07;3.58;;;8.60;99.90;;;;;;5101962;28;20088;-66
2021/11/30 03:25:42;;;;;;;15.50;3.85;;;8.60;99.90;;;;;;5095469;28;20023;-71
2021/11/30 03:28:08;;;;;;;12.88;5.53;;;8.70;99.90;;;;;;5086102;28;20034;-70
2021/11/30 03:30:36;;;;;;;12.07;4.88;;;8.70;99.90;;;;;;5087013;28;20117;-74
2021/11/30 03:35:46;;;;;;;10.63;3.70;;;8.70;99.90;;;;;;5109569;28;20398;-71
2021/11/30 03:38:11;;;;;;;16.33;4.30;;;8.80;99.90;;;;;;5106344;28;20048;-72
2021/11/30 03:40:37;;;;;;;13.23;4.22;;;8.80;99.90;;;;;;5078647;28;20028;-70
2021/11/30 03:43:02;;;;;;;11.98;4.05;;;8.80;99.90;;;;;;5094951;27;20465;-74
2021/11/30 03:45:28;;;;;;;14.45;4.82;;;8.80;99.90;;;;;;5101554;28;20069;-73
2021/11/30 03:47:54;;;;;;;10.25;4.00;;;8.80;99.90;;;;;;5091461;28;20023;-75
2021/11/30 03:50:19;;;;;;;8.70;3.42;;;8.80;99.90;;;;;;5098776;28;20076;-71
2021/11/30 03:52:45;;;;;;;11.75;3.30;;;8.80;99.90;;;;;;5086315;28;20028;-72
2021/11/30 03:55:11;;;;;;;14.27;3.78;;;8.80;99.90;;;;;;5102144;28;20039;-69
2021/11/30 03:57:37;;;;;;;13.57;3.83;;;8.90;99.90;;;;;;5080901;28;20023;-72
2021/11/30 04:00:09;;;;;;;11.82;3.17;;;8.90;99.90;;;;;;5100784;28;20039;-73
2021/11/30 04:02:35;;;;;;;11.00;3.78;;;8.90;99.90;;;;;;5116194;28;20043;-71
2021/11/30 04:05:01;;;;;;;11.95;4.05;;;9.00;99.90;;;;;;5100617;28;20098;-71
2021/11/30 04:07:26;;;;;;;7.63;2.95;;;9.00;99.90;;;;;;5071990;28;20118;-72
2021/11/30 04:09:52;;;;;;;15.50;3.72;;;9.00;99.90;;;;;;5117419;28;20452;-71
2021/11/30 04:12:18;;;;;;;15.55;4.15;;;9.00;99.90;;;;;;5112282;28;20039;-73
2021/11/30 04:14:43;;;;;;;10.30;3.67;;;9.00;99.90;;;;;;5094199;28;20035;-71
2021/11/30 04:17:09;;;;;;;19.20;3.33;;;9.00;99.90;;;;;;5068287;28;20043;-72
2021/11/30 04:19:34;;;;;;;7.50;3.05;;;9.10;99.90;;;;;;5094428;28;20027;-71
2021/11/30 04:22:00;;;;;;;7.80;3.20;;;9.10;99.90;;;;;;5096996;28;20027;-72
2021/11/30 04:24:26;;;;;;;13.75;4.35;;;9.10;99.90;;;;;;5094437;28;20081;-73
2021/11/30 04:26:51;;;;;;;11.52;4.03;;;9.20;99.90;;;;;;5122345;27;20489;-68
2021/11/30 04:29:17;;;;;;;10.13;3.75;;;9.20;99.90;;;;;;5115873;27;20479;-66
2021/11/30 04:31:43;;;;;;;11.25;3.90;;;9.20;99.90;;;;;;5107107;28;20031;-66
2021/11/30 04:34:09;;;;;;;6.20;2.88;;;9.10;99.90;;;;;;5093732;27;20127;-66
2021/11/30 04:36:34;;;;;;;12.48;4.35;;;9.20;99.90;;;;;;5096663;27;20446;-70
2021/11/30 04:39:00;;;;;;;9.23;3.25;;;9.10;99.90;;;;;;5106855;27;20521;-72
2021/11/30 04:41:26;;;;;;;6.97;2.58;;;9.10;99.90;;;;;;5102011;27;20114;-69
2021/11/30 04:43:52;;;;;;;9.75;3.08;;;9.10;99.90;;;;;;5105074;27;20127;-68
2021/11/30 04:46:26;;;;;;;9.93;2.53;;;9.20;99.90;;;;;;5103996;27;20035;-68
2021/11/30 04:48:57;;;;;;;9.40;2.53;;;9.20;99.90;;;;;;5124987;27;20036;-68
2021/11/30 04:51:30;;;;;;;5.32;2.33;;;9.20;99.90;;;;;;5104734;27;20054;-68
2021/11/30 04:53:55;;;;;;;10.20;2.20;;;9.20;99.90;;;;;;5098868;27;20092;-70
2021/11/30 04:56:21;;;;;;;7.57;2.30;;;9.20;99.90;;;;;;5098705;27;20429;-70
2021/11/30 04:58:47;;;;;;;9.07;2.72;;;9.30;99.90;;;;;;5124504;27;20027;-69
2021/11/30 05:01:13;;;;;;;7.85;2.45;;;9.30;99.90;;;;;;5094482;28;20449;-68
2021/11/30 05:03:39;;;;;;;14.23;3.40;;;9.30;99.90;;;;;;5093077;27;20084;-68
2021/11/30 05:06:05;;;;;;;7.72;2.40;;;9.30;99.90;;;;;;5101455;27;20088;-68
2021/11/30 05:08:31;;;;;;;8.77;2.45;;;9.40;99.90;;;;;;5090507;28;20427;-67
2021/11/30 05:10:56;;;;;;;8.50;1.98;;;9.30;99.90;;;;;;5093687;27;20021;-68
2021/11/30 05:13:22;;;;;;;14.57;4.88;;;9.40;99.90;;;;;;5095764;27;20038;-68
2021/11/30 05:15:48;;;;;;;12.45;3.33;;;9.30;99.90;;;;;;5108874;27;20024;-68
2021/11/30 05:18:13;;;;;;;10.45;2.70;;;9.30;99.90;;;;;;5086920;27;20024;-75
2021/11/30 05:20:39;;;;;;;10.23;2.88;;;9.30;99.90;;;;;;5079972;28;20020;-71
2021/11/30 05:23:05;;;;;;;7.20;2.22;;;9.40;99.90;;;;;;5086945;27;20043;-74
2021/11/30 05:25:35;;;;;;;9.80;2.58;;;9.40;99.90;;;;;;5104384;27;20054;-73
2021/11/30 05:28:02;;;;;;;7.45;2.60;;;9.40;99.90;;;;;;5102627;27;20027;-70
2021/11/30 05:30:36;;;;;;;13.70;2.95;;;9.40;99.90;;;;;;5110311;27;20431;-72
2021/11/30 05:33:06;;;;;;;8.88;2.78;;;9.40;99.90;;;;;;5113166;27;20100;-74
2021/11/30 05:35:31;;;;;;;4.63;2.35;;;9.40;99.90;;;;;;5094091;28;20490;-71
2021/11/30 05:37:57;;;;;;;11.85;3.13;;;9.40;99.90;;;;;;5100223;28;20090;-72
2021/11/30 05:40:23;;;;;;;15.82;2.28;;;9.40;99.90;;;;;;5098690;28;20024;-72
2021/11/30 05:42:49;;;;;;;7.20;1.80;;;9.40;99.90;;;;;;5081617;28;20043;-70
2021/11/30 05:45:14;;;;;;;8.30;2.33;;;9.50;99.90;;;;;;5111560;27;20040;-72
2021/11/30 05:47:40;;;;;;;7.10;1.60;;;9.50;99.90;;;;;;5099400;27;20442;-74
2021/11/30 05:50:06;;;;;;;8.55;2.15;;;9.60;99.90;;;;;;5098227;28;20024;-72
2021/11/30 05:52:31;;;;;;;7.82;2.28;;;9.60;99.90;;;;;;5088008;28;20028;-70
2021/11/30 05:54:57;;;;;;;5.68;2.03;;;9.60;99.90;;;;;;5098407;28;20462;-72
2021/11/30 05:57:23;;;;;;;9.43;2.55;;;9.50;99.90;;;;;;5096743;28;20423;-71
2021/11/30 05:59:49;;;;;;;7.28;3.72;;;9.60;99.90;;;;;;5106895;28;20024;-71
2021/11/30 06:02:15;;;;;;;5.72;3.10;;;9.60;99.90;;;;;;5084900;28;20448;-76
2021/11/30 06:04:41;;;;;;;4.93;2.30;;;9.60;99.90;;;;;;5098759;28;20024;-71
2021/11/30 06:07:07;;;;;;;15.30;3.13;;;9.60;99.90;;;;;;5087205;28;20039;-72
2021/11/30 06:09:34;;;;;;;11.70;2.72;;;9.60;99.90;;;;;;5101016;28;20494;-73
2021/11/30 06:12:00;;;;;;;7.80;2.17;;;9.60;99.90;;;;;;5091665;28;20121;-71
2021/11/30 06:14:26;;;;;;;9.43;3.60;;;9.60;99.90;;;;;;5086576;28;20024;-69
2021/11/30 06:16:51;;;;;;;8.73;2.28;;;9.60;99.90;;;;;;5093370;28;20031;-72
2021/11/30 06:19:19;;;;;;;12.98;2.28;;;9.60;99.90;;;;;;5099860;28;20020;-70
2021/11/30 06:21:46;;;;;;;9.02;2.08;;;9.60;99.90;;;;;;5099630;28;20036;-69
2021/11/30 06:24:12;;;;;;;5.55;2.22;;;9.70;99.90;;;;;;5093408;28;20097;-69
2021/11/30 06:26:37;;;;;;;11.40;1.75;;;9.70;99.90;;;;;;5091417;28;20031;-67
2021/11/30 06:29:03;;;;;;;11.75;2.90;;;9.70;99.90;;;;;;5071472;28;20039;-73
2021/11/30 06:31:28;;;;;;;11.27;2.85;;;9.70;99.90;;;;;;5088433;28;20048;-68
2021/11/30 06:33:54;;;;;;;6.82;2.90;;;9.70;99.90;;;;;;5097806;28;20047;-66
2021/11/30 06:36:20;;;;;;;11.52;2.70;;;9.70;99.90;;;;;;5087113;28;20032;-67
2021/11/30 06:38:45;;;;;;;13.57;2.50;;;9.80;99.90;;;;;;5093185;28;20048;-68
2021/11/30 06:41:11;;;;;;;15.70;2.65;;;9.80;99.90;;;;;;5097947;28;20090;-66
2021/11/30 06:43:36;;;;;;;13.43;3.08;;;9.80;99.90;;;;;;5089606;28;20063;-70
2021/11/30 06:46:02;;;;;;;15.52;2.38;;;9.80;99.90;;;;;;5107460;28;20027;-67
2021/11/30 06:48:28;;;;;;;7.00;2.38;;;9.80;99.90;;;;;;5080237;28;20036;-69
2021/11/30 06:50:53;;;;;;;11.82;2.17;;;9.80;99.90;;;;;;5087085;28;20028;-66
2021/11/30 06:53:19;;;;;;;16.90;2.90;;;9.80;99.90;;;;;;5092067;28;20048;-67
2021/11/30 06:55:45;;;;;;;14.43;2.55;;;9.80;99.90;;;;;;5083746;28;20020;-66
2021/11/30 06:58:11;;;;;;;16.23;2.88;;;9.90;99.90;;;;;;5101395;28;20032;-67
2021/11/30 07:00:37;;;;;;;13.18;3.00;;;9.90;99.90;;;;;;5102262;28;20039;-70
2021/11/30 07:03:03;;;;;;;13.38;2.67;;;9.80;99.90;;;;;;5107554;28;20039;-67
2021/11/30 07:05:35;;;;;;;11.63;3.88;;;9.90;99.90;;;;;;5096942;28;20058;-69
2021/11/30 07:08:18;;;;;;;16.38;3.95;;;9.90;99.90;;;;;;5096472;28;20558;-71
2021/11/30 07:10:49;;;;;;;19.83;3.42;;;9.80;99.90;;;;;;5097602;28;20026;-70
2021/11/30 07:15:57;;;;;;;17.08;3.53;;;9.90;99.90;;;;;;5107134;28;20019;-70
2021/11/30 07:18:24;;;;;;;13.90;3.30;;;9.80;99.90;;;;;;5089558;28;20072;-70
2021/11/30 07:20:50;;;;;;;12.82;4.22;;;9.90;99.90;;;;;;5087461;28;20024;-68
2021/11/30 07:23:16;;;;;;;16.27;2.75;;;9.90;99.90;;;;;;5086786;28;20039;-70
2021/11/30 07:25:42;;;;;;;17.60;2.92;;;9.90;99.90;;;;;;5101616;28;20038;-70
2021/11/30 07:28:08;;;;;;;9.38;2.25;;;9.90;99.90;;;;;;5081421;28;20070;-68
2021/11/30 07:30:35;;;;;;;13.43;4.07;;;9.90;99.90;;;;;;5075157;28;20427;-70
2021/11/30 07:33:02;;;;;;;12.18;3.25;;;9.90;99.90;;;;;;5099727;28;20033;-69
2021/11/30 07:35:28;;;;;;;11.70;4.80;;;10.00;99.90;;;;;;5105634;28;20028;-70
2021/11/30 07:37:54;;;;;;;12.85;4.28;;;10.00;99.90;;;;;;5081609;28;20113;-70
2021/11/30 07:40:20;;;;;;;9.38;2.97;;;10.00;99.90;;;;;;5075531;28;20059;-67
2021/11/30 07:42:46;;;;;;;14.07;3.28;;;10.00;99.90;;;;;;5089902;28;20458;-69
2021/11/30 07:45:13;;;;;;;8.10;2.20;;;10.00;99.90;;;;;;5096466;28;20028;-71
2021/11/30 07:47:39;;;;;;;16.20;3.50;;;10.00;99.90;;;;;;5096011;28;20394;-70
2021/11/30 07:50:06;;;;;;;10.70;3.65;;;10.00;99.90;;;;;;5099317;28;20036;-69
2021/11/30 07:52:36;;;;;;;13.45;3.78;;;10.00;99.90;;;;;;5105566;28;20020;-67
2021/11/30 07:55:04;;;;;;;13.10;3.30;;;10.20;99.90;;;;;;5093253;28;20019;-69
2021/11/30 07:57:31;;;;;;;15.65;3.47;;;10.10;99.90;;;;;;5090897;28;20036;-67
2021/11/30 07:59:57;;;;;;;8.15;2.67;;;10.10;99.90;;;;;;5090912;28;20095;-69
2021/11/30 08:02:22;;;;;;;9.65;4.10;;;10.10;99.90;;;;;;5093184;28;20744;-74
2021/11/30 08:04:49;;;;;;;12.57;3.25;;;10.10;99.90;;;;;;5099981;28;20351;-69
2021/11/30 08:07:16;;;;;;;13.55;3.35;;;10.10;99.90;;;;;;5122139;28;20039;-70
2021/11/30 08:09:43;;;;;;;9.77;3.10;;;10.00;99.90;;;;;;5120397;28;20026;-78
2021/11/30 08:12:09;;;;;;;13.23;2.47;;;10.10;99.90;;;;;;5125967;27;20052;-76
2021/11/30 08:14:34;;;;;;;11.38;4.07;;;10.10;99.90;;;;;;5130014;27;20119;-74
2021/11/30 08:17:00;;;;;;;14.38;2.42;;;10.10;99.90;;;;;;5119963;28;20027;-68
2021/11/30 08:19:27;;;;;;;14.52;2.80;;;10.20;99.90;;;;;;5122432;28;20032;-67
2021/11/30 08:21:53;;;;;;;13.77;3.67;;;10.20;99.90;;;;;;5126823;28;20073;-71
2021/11/30 08:24:19;;;;;;;5.32;2.53;;;10.10;99.90;;;;;;5135334;28;20031;-69
2021/11/30 08:26:44;;;;;;;13.38;2.90;;;10.10;99.90;;;;;;5134610;28;20031;-74
2021/11/30 08:29:10;;;;;;;14.15;4.22;;;10.20;99.90;;;;;;5099533;28;20031;-71
2021/11/30 08:31:37;;;;;;;12.77;3.38;;;10.30;99.90;;;;;;5113633;28;20032;-73
2021/11/30 08:34:02;;;;;;;12.73;2.28;;;10.30;99.90;;;;;;5125530;28;20024;-75
2021/11/30 08:36:28;;;;;;;27.15;5.63;;;10.30;99.90;;;;;;5125079;28;20057;-73
2021/11/30 08:38:54;;;;;;;17.88;4.68;;;10.30;99.90;;;;;;5138780;28;20030;-77
2021/11/30 08:41:20;;;;;;;9.18;3.22;;;10.40;99.90;;;;;;5122677;28;20021;-73
2021/11/30 08:43:46;;;;;;;12.63;4.88;;;10.40;99.90;;;;;;5097140;28;20032;-78
2021/11/30 08:46:12;;;;;;;12.05;3.00;;;10.50;99.90;;;;;;5123746;28;20028;-72
2021/11/30 08:48:38;;;;;;;14.45;3.85;;;10.50;99.90;;;;;;5114230;28;20028;-74
2021/11/30 08:51:04;;;;;;;14.38;3.60;;;10.40;99.90;;;;;;5099324;28;20104;-72
2021/11/30 08:53:34;;;;;;;13.20;3.67;;;10.50;99.90;;;;;;5098629;28;20043;-74
2021/11/30 08:56:01;;;;;;;5.28;1.13;;;10.50;99.90;;;;;;5095364;28;20027;-72
2021/11/30 08:58:27;;;;;;;0.90;0.47;;;10.40;99.90;;;;;;5092268;28;20032;-71
2021/11/30 09:00:53;;;;;;;1.48;0.73;;;10.30;99.90;;;;;;5078349;28;20111;-74
2021/11/30 09:03:19;;;;;;;3.17;0.80;;;10.20;99.90;;;;;;5094153;28;20039;-72
2021/11/30 09:05:44;;;;;;;1.00;0.50;;;10.00;99.90;;;;;;5109904;28;20038;-75
2021/11/30 09:08:11;;;;;;;2.13;0.60;;;10.00;99.90;;;;;;5109404;28;20097;-74
2021/11/30 09:10:37;;;;;;;3.33;0.80;;;10.00;99.90;;;;;;5093472;28;20028;-72
2021/11/30 09:13:03;;;;;;;7.90;1.35;;;10.00;99.90;;;;;;5096314;28;20038;-73
2021/11/30 09:15:29;;;;;;;1.70;0.60;;;10.00;99.90;;;;;;5092598;28;20043;-72
2021/11/30 09:17:56;;;;;;;2.35;0.50;;;10.00;99.90;;;;;;5092869;28;20470;-72
2021/11/30 09:20:23;;;;;;;3.83;0.68;;;9.90;99.90;;;;;;5093580;28;20165;-72
2021/11/30 09:22:50;;;;;;;8.57;1.20;;;9.90;99.90;;;;;;5065819;28;20044;-73
2021/11/30 09:25:16;;;;;;;5.93;1.48;;;9.90;99.90;;;;;;5098280;28;20016;-70
2021/11/30 09:27:43;;;;;;;2.67;0.70;;;9.90;99.90;;;;;;5104760;28;20431;-72
2021/11/30 09:30:11;;;;;;;2.00;0.57;;;9.90;99.90;;;;;;5097232;28;20020;-73
2021/11/30 09:32:37;;;;;;;2.83;0.88;;;9.90;99.90;;;;;;5086922;28;20028;-70
2021/11/30 09:35:03;;;;;;;3.22;1.60;;;9.90;99.90;;;;;;5100588;28;20082;-74
2021/11/30 09:37:29;;;;;;;6.05;1.42;;;9.90;99.90;;;;;;5102208;27;20119;-72
2021/11/30 09:39:55;;;;;;;3.50;1.27;;;9.90;99.90;;;;;;5095508;28;20032;-73
2021/11/30 09:42:21;;;;;;;2.38;0.75;;;9.90;99.90;;;;;;5097208;28;20093;-72
2021/11/30 09:44:47;;;;;;;2.25;0.77;;;9.90;99.90;;;;;;5111607;27;20047;-71
2021/11/30 09:47:14;;;;;;;4.97;2.05;;;9.90;99.90;;;;;;5123395;27;20031;-72
2021/11/30 09:49:40;;;;;;;6.07;1.50;;;9.90;99.90;;;;;;5103274;27;20076;-72
2021/11/30 09:52:07;;;;;;;5.35;1.20;;;9.90;99.90;;;;;;5117395;27;20027;-73
2021/11/30 09:54:33;;;;;;;2.35;1.10;;;9.90;99.90;;;;;;5113728;27;20546;-71
2021/11/30 09:56:59;;;;;;;8.07;1.27;;;9.90;99.90;;;;;;5111565;27;20026;-71
2021/11/30 09:59:25;;;;;;;7.20;1.25;;;9.90;99.90;;;;;;5098568;27;20106;-72
2021/11/30 10:01:51;;;;;;;7.28;1.38;;;9.90;99.90;;;;;;5078369;28;20046;-72
2021/11/30 10:04:17;;;;;;;10.40;1.45;;;9.90;99.90;;;;;;5115202;27;20082;-72
2021/11/30 10:06:42;;;;;;;7.85;2.33;;;9.80;99.90;;;;;;5097445;27;20055;-74
2021/11/30 10:09:25;;;;;;;6.95;1.30;;;9.90;99.90;;;;;;5094604;28;20034;-72
2021/11/30 10:12:01;;;;;;;3.63;1.00;;;10.00;99.90;;;;;;5114872;27;20080;-73
2021/11/30 10:14:38;;;;;;;5.15;1.27;;;10.00;99.90;;;;;;5094123;28;20032;-71
2021/11/30 10:17:22;;;;;;;3.30;0.80;;;10.00;99.90;;;;;;5095539;28;20096;-75
2021/11/30 10:19:54;;;;;;;5.28;1.15;;;10.00;99.90;;;;;;5101305;28;20112;-74
2021/11/30 10:22:41;;;;;;;5.10;2.22;;;10.10;99.90;;;;;;5106249;27;20516;-74
2021/11/30 10:25:12;;;;;;;4.15;1.40;;;10.00;99.90;;;;;;5093012;28;20371;-70
2021/11/30 10:27:46;;;;;;;2.95;0.73;;;10.00;99.90;;;;;;5094716;27;20020;-74
2021/11/30 10:30:15;;;;;;;5.05;0.90;;;9.90;99.90;;;;;;5107443;27;20038;-72
2021/11/30 10:32:44;;;;;;;2.55;0.80;;;9.80;99.90;;;;;;5119518;27;20039;-71
2021/11/30 10:35:10;;;;;;;2.88;0.60;;;9.80;99.90;;;;;;5118207;27;20123;-73
2021/11/30 10:37:43;;;;;;;3.55;1.23;;;9.80;99.90;;;;;;5107573;28;20040;-71
2021/11/30 10:40:12;;;;;;;4.75;1.48;;;9.80;99.90;;;;;;5096242;28;20069;-72
2021/11/30 10:42:47;;;;;;;1.95;1.00;;;9.90;99.90;;;;;;5094080;28;20545;-73
2021/11/30 10:45:33;;;;;;;2.40;0.75;;;9.90;99.90;;;;;;5092850;28;20389;-74
2021/11/30 10:48:08;;;;;;;1.95;0.28;;;10.00;99.90;;;;;;5094588;28;20012;-71
2021/11/30 10:50:39;;;;;;;3.35;0.60;;;10.00;99.90;;;;;;5077642;28;20415;-71
2021/11/30 10:53:19;;;;;;;2.72;0.60;;;10.00;99.90;;;;;;5088963;27;20025;-73
2021/11/30 10:55:54;;;;;;;3.03;0.98;;;9.90;99.90;;;;;;5116545;27;20019;-73
2021/11/30 10:58:19;;;;;;;;;;;10.00;99.90;;;;;;5108081;28;20023;-71
2021/11/30 11:00:45;;;;;;;1.80;0.70;;;10.00;99.90;;;;;;5104853;27;19932;-72
2021/11/30 11:03:17;;;;;;;1.75;0.50;;;10.10;99.90;;;;;;5099703;27;20024;-73
2021/11/30 11:05:44;;;;;;;2.38;0.93;;;10.20;99.90;;;;;;5092761;28;20488;-72
2021/11/30 11:08:16;;;;;;;3.45;0.75;;;10.20;99.90;;;;;;5087973;28;20076;-71
2021/11/30 11:10:47;;;;;;;5.07;1.65;;;10.30;99.90;;;;;;5125739;27;20536;-72
2021/11/30 11:13:21;;;;;;;1.83;0.60;;;10.30;99.90;;;;;;5094559;28;20031;-74
2021/11/30 11:15:47;;;;;;;1.25;0.90;;;10.40;99.90;;;;;;5115091;27;20109;-74
2021/11/30 11:18:25;;;;;;;3.47;0.90;;;10.30;99.90;;;;;;5110158;28;20023;-72
2021/11/30 11:21:07;;;;;;;1.65;0.60;;;10.40;99.90;;;;;;5101327;28;20419;-71
2021/11/30 11:23:32;;;;;;;3.58;1.05;;;10.30;99.90;;;;;;5104538;28;20126;-70
2021/11/30 11:25:59;;;;;;;1.90;0.90;;;10.40;99.90;;;;;;5092518;28;20624;-73
2021/11/30 11:28:25;;;;;;;2.83;0.65;;;10.40;99.90;;;;;;5099395;28;20027;-74
2021/11/30 11:30:51;;;;;;;2.13;0.90;;;10.50;99.90;;;;;;5109232;27;20473;-70
2021/11/30 11:33:18;;;;;;;3.33;1.17;;;10.60;99.90;;;;;;5093422;28;20047;-70
2021/11/30 11:35:44;;;;;;;1.77;0.73;;;10.50;99.90;;;;;;5114170;28;20398;-71
2021/11/30 11:38:11;;;;;;;1.23;0.57;;;10.60;99.90;;;;;;5093331;28;20082;-70
2021/11/30 11:40:37;;;;;;;2.17;0.70;;;10.50;99.90;;;;;;5074327;28;20038;-71
2021/11/30 11:43:04;;;;;;;2.00;0.60;;;10.40;99.90;;;;;;5097101;28;20039;-70
2021/11/30 11:45:29;;;;;;;2.97;1.00;;;10.40;99.90;;;;;;5111334;28;20030;-74
2021/11/30 11:48:07;;;;;;;0.57;0.50;;;10.40;99.90;;;;;;5087530;28;20440;-74
2021/11/30 11:50:55;;;;;;;1.05;0.60;;;10.50;99.90;;;;;;5076994;28;20046;-73
2021/11/30 11:53:31;;;;;;;1.38;0.50;;;10.50;99.90;;;;;;5082113;28;20024;-74
2021/11/30 11:56:33;;;;;;;1.45;0.73;;;10.60;99.90;;;;;;5078036;28;20035;-78
2021/11/30 11:59:19;;;;;;;2.50;0.68;;;10.60;99.90;;;;;;5103627;28;20027;-74
2021/11/30 12:02:11;;;;;;;1.35;0.70;;;10.60;99.90;;;;;;5120437;28;21714;-75
2021/11/30 12:04:43;;;;;;;0.98;0.70;;;10.60;99.90;;;;;;5117359;28;20035;-72
2021/11/30 12:07:09;;;;;;;1.02;0.50;;;10.60;99.90;;;;;;5099195;28;20161;-72
2021/11/30 12:09:35;;;;;;;1.33;0.52;;;10.70;99.90;;;;;;5102966;28;20515;-77
2021/11/30 12:12:10;;;;;;;1.42;0.52;;;10.70;99.90;;;;;;5112025;28;20043;-76
2021/11/30 12:14:39;;;;;;;;;;;10.70;99.90;;;;;;5122480;28;20031;-73
2021/11/30 12:17:17;;;;;;;3.33;0.80;;;10.70;99.90;;;;;;5101328;28;19907;-82
2021/11/30 12:19:42;;;;;;;0.90;0.50;;;10.60;99.90;;;;;;5123005;28;20505;-72
2021/11/30 12:22:10;;;;;;;1.30;0.55;;;10.60;99.90;;;;;;5102343;28;20027;-72
2021/11/30 12:24:45;;;;;;;2.80;0.70;;;10.50;99.90;;;;;;5113166;28;20057;-71
2021/11/30 12:27:13;;;;;;;1.70;0.73;;;10.50;99.90;;;;;;5117657;28;20489;-72
2021/11/30 12:29:39;;;;;;;1.63;0.50;;;10.40;99.90;;;;;;5111279;28;20031;-73
2021/11/30 12:32:28;;;;;;;1.92;0.60;;;10.40;99.90;;;;;;5101435;28;20072;-74
2021/11/30 12:35:02;;;;;;;2.17;0.90;;;10.40;99.90;;;;;;5093372;28;20114;-72
2021/11/30 12:37:30;;;;;;;1.30;0.80;;;10.40;99.90;;;;;;5081563;28;20027;-74
2021/11/30 12:40:05;;;;;;;0.10;0.10;;;10.40;99.90;;;;;;5097952;28;20031;-73
2021/11/30 12:42:51;;;;;;;1.15;0.95;;;10.40;99.90;;;;;;5110672;28;20036;-72
2021/11/30 12:45:36;;;;;;;0.50;0.40;;;10.40;99.90;;;;;;5093629;28;20016;-73
2021/11/30 12:48:19;;;;;;;0.32;0.30;;;10.20;99.90;;;;;;5124053;27;20028;-74
2021/11/30 12:50:45;;;;;;;1.02;0.47;;;10.20;99.90;;;;;;5088065;27;20618;-74
2021/11/30 12:53:11;;;;;;;0.30;0.30;;;10.20;99.90;;;;;;5107288;27;20110;-76
2021/11/30 12:55:46;;;;;;;0.40;0.40;;;10.20;99.90;;;;;;5099869;28;20161;-72
2021/11/30 12:58:45;;;;;;;0.30;0.30;;;10.20;99.90;;;;;;5096944;28;20465;-72
2021/11/30 13:01:23;;;;;;;1.15;0.50;;;10.20;99.90;;;;;;5116823;27;20023;-76
2021/11/30 13:03:52;;;;;;;2.15;0.70;;;10.20;99.90;;;;;;5084865;28;20130;-72